Time;durP1;ratioP1;P1;durP2;ratioP2;P2;SDS_P1;SDS_P2;PMS_P1;PMS_P2;Temp;Humidity;BMP_temperature;BMP_pressure;BME280_temperature;BME280_humidity;BME280_pressure;Samples;Min_cycle;Max_cycle;Signal;HPM_P1;HPM_P2
2023/06/21 00:00:41;;;;;;;10.87;8.60;;;21.40;99.90;;;;;;4971193;28;20462;-72
2023/06/21 00:03:07;;;;;;;17.23;10.93;;;21.40;99.90;;;;;;4971537;28;20538;-72
2023/06/21 00:05:34;;;;;;;13.43;9.07;;;21.30;99.90;;;;;;4979461;28;20522;-72
2023/06/21 00:08:03;;;;;;;12.60;9.57;;;21.30;99.90;;;;;;4973700;28;20468;-72
2023/06/21 00:10:30;;;;;;;15.03;10.40;;;21.30;99.90;;;;;;4977907;28;20844;-71
2023/06/21 00:12:57;;;;;;;9.57;8.33;;;21.30;99.90;;;;;;4974288;28;20483;-72
2023/06/21 00:15:24;;;;;;;14.23;8.97;;;21.30;99.90;;;;;;4974956;28;20455;-71
2023/06/21 00:17:51;;;;;;;10.47;8.77;;;21.30;99.90;;;;;;4971288;28;20456;-72
2023/06/21 00:20:18;;;;;;;10.07;8.90;;;21.30;99.90;;;;;;4970877;28;20503;-72
2023/06/21 00:22:45;;;;;;;10.00;8.43;;;21.30;99.90;;;;;;4971095;28;20523;-72
2023/06/21 00:25:15;;;;;;;14.53;8.50;;;21.30;99.90;;;;;;4975856;28;20496;-71
2023/06/21 00:27:42;;;;;;;10.87;8.93;;;21.20;99.90;;;;;;4972738;28;20468;-71
2023/06/21 00:30:10;;;;;;;12.13;9.50;;;21.20;99.90;;;;;;4971410;28;20452;-72
2023/06/21 00:32:38;;;;;;;12.00;9.03;;;21.10;99.90;;;;;;4978572;28;21007;-72
2023/06/21 00:35:06;;;;;;;9.80;8.50;;;21.10;99.90;;;;;;4971246;28;20455;-71
2023/06/21 00:37:32;;;;;;;10.40;8.50;;;21.00;99.90;;;;;;4972020;28;20456;-71
2023/06/21 00:39:59;;;;;;;10.43;8.43;;;21.00;99.90;;;;;;4977871;28;20506;-71
2023/06/21 00:42:27;;;;;;;12.13;8.97;;;21.00;99.90;;;;;;4970739;28;21007;-72
2023/06/21 00:44:54;;;;;;;14.60;8.73;;;21.00;99.90;;;;;;4971169;28;20546;-71
2023/06/21 00:47:22;;;;;;;14.83;8.80;;;21.00;99.90;;;;;;4976312;28;20460;-71
2023/06/21 00:49:48;;;;;;;12.27;9.23;;;20.90;99.90;;;;;;4970698;28;20456;-72
2023/06/21 00:52:15;;;;;;;9.10;8.20;;;20.90;99.90;;;;;;4970407;28;20918;-72
2023/06/21 00:54:43;;;;;;;12.50;8.83;;;20.90;99.90;;;;;;4970675;28;20467;-72
2023/06/21 00:57:11;;;;;;;14.53;8.90;;;20.80;99.90;;;;;;4971291;28;20833;-71
2023/06/21 00:59:39;;;;;;;13.37;9.00;;;20.80;99.90;;;;;;4976400;28;20648;-72
2023/06/21 01:02:06;;;;;;;14.17;9.10;;;20.70;99.90;;;;;;4977623;28;20455;-72
2023/06/21 01:04:34;;;;;;;13.53;9.00;;;20.70;99.90;;;;;;4970617;28;20999;-72
2023/06/21 01:07:11;;;;;;;10.43;9.00;;;20.70;99.90;;;;;;4970830;28;20515;-72
2023/06/21 01:09:56;;;;;;;13.37;9.10;;;20.70;99.90;;;;;;4970817;28;20873;-72
2023/06/21 01:12:36;;;;;;;13.50;9.53;;;20.70;99.90;;;;;;4971260;28;20887;-71
2023/06/21 01:15:09;;;;;;;16.87;9.40;;;20.70;99.90;;;;;;4972507;28;20538;-72
2023/06/21 01:17:40;;;;;;;12.90;9.57;;;20.70;99.90;;;;;;4972766;28;20940;-72
2023/06/21 01:20:13;;;;;;;11.17;9.03;;;20.70;99.90;;;;;;4974685;28;20452;-72
2023/06/21 01:22:54;;;;;;;12.60;9.27;;;20.70;99.90;;;;;;4975210;28;20507;-71
2023/06/21 01:25:30;;;;;;;12.50;9.00;;;20.70;99.90;;;;;;4970954;28;20495;-71
2023/06/21 01:28:21;;;;;;;10.33;9.20;;;20.70;99.90;;;;;;4981443;28;20460;-71
2023/06/21 01:30:49;;;;;;;21.23;10.03;;;20.70;99.90;;;;;;4976596;28;20523;-71
2023/06/21 01:33:17;;;;;;;13.20;9.87;;;20.60;99.90;;;;;;4980997;28;20532;-72
2023/06/21 01:35:44;;;;;;;18.73;9.33;;;20.60;99.90;;;;;;4975323;28;20498;-71
2023/06/21 01:38:11;;;;;;;15.60;10.40;;;20.50;99.90;;;;;;4979550;28;20456;-71
2023/06/21 01:40:38;;;;;;;15.20;10.20;;;20.40;99.90;;;;;;4975243;28;20479;-71
2023/06/21 01:43:04;;;;;;;12.73;9.83;;;20.40;99.90;;;;;;4980400;28;20480;-72
2023/06/21 01:45:31;;;;;;;16.03;10.70;;;20.30;99.90;;;;;;4972670;28;20488;-72
2023/06/21 01:48:02;;;;;;;12.30;10.00;;;20.30;99.90;;;;;;4974186;28;20512;-72
2023/06/21 01:50:30;;;;;;;13.40;10.30;;;20.30;99.90;;;;;;4977441;28;20463;-71
2023/06/21 01:52:57;;;;;;;12.67;10.30;;;20.20;99.90;;;;;;4975359;28;21046;-71
2023/06/21 01:55:25;;;;;;;13.17;10.40;;;20.20;99.90;;;;;;4980351;28;20452;-71
2023/06/21 01:57:52;;;;;;;18.80;10.73;;;20.20;99.90;;;;;;4973899;28;20453;-71
2023/06/21 02:00:21;;;;;;;15.63;11.30;;;20.20;99.90;;;;;;4973719;28;20456;-71
2023/06/21 02:02:51;;;;;;;16.00;10.10;;;20.10;99.90;;;;;;4973231;28;20515;-71
2023/06/21 02:05:20;;;;;;;15.03;11.23;;;20.10;99.90;;;;;;4973844;28;20537;-71
2023/06/21 02:07:48;;;;;;;15.07;10.70;;;20.00;99.90;;;;;;4973666;28;20452;-72
2023/06/21 02:10:15;;;;;;;12.90;10.00;;;20.00;99.90;;;;;;4973800;28;20452;-71
2023/06/21 02:12:42;;;;;;;15.57;10.87;;;19.90;99.90;;;;;;4973255;28;20523;-71
2023/06/21 02:15:11;;;;;;;12.00;10.67;;;19.80;99.90;;;;;;4978203;28;20451;-71
2023/06/21 02:17:38;;;;;;;16.23;12.07;;;19.60;99.90;;;;;;4980133;28;20463;-71
2023/06/21 02:20:11;;;;;;;16.57;12.40;;;19.50;99.90;;;;;;4979070;28;20461;-70
2023/06/21 02:22:39;;;;;;;18.03;12.50;;;19.40;99.90;;;;;;4974698;28;20487;-71
2023/06/21 02:25:06;;;;;;;13.70;11.27;;;19.40;99.90;;;;;;4992380;28;20462;-71
2023/06/21 02:27:33;;;;;;;14.27;11.07;;;19.30;99.90;;;;;;4993370;28;20459;-71
2023/06/21 02:29:59;;;;;;;19.03;12.80;;;19.30;99.90;;;;;;4991578;28;20459;-71
2023/06/21 02:32:26;;;;;;;18.53;12.00;;;19.30;99.90;;;;;;4985301;28;20526;-71
2023/06/21 02:34:52;;;;;;;14.03;10.67;;;19.40;99.90;;;;;;4992393;28;20505;-71
2023/06/21 02:37:19;;;;;;;14.50;9.97;;;19.30;99.90;;;;;;4992161;28;20447;-71
2023/06/21 02:39:47;;;;;;;12.23;10.00;;;19.40;99.90;;;;;;4986307;28;20456;-72
2023/06/21 02:42:14;;;;;;;15.33;10.47;;;19.40;99.90;;;;;;4991175;28;20456;-71
2023/06/21 02:44:41;;;;;;;10.70;9.67;;;19.50;99.90;;;;;;4984527;28;20467;-71
2023/06/21 02:47:08;;;;;;;14.60;10.30;;;19.50;99.90;;;;;;4992642;28;20486;-71
2023/06/21 02:49:36;;;;;;;13.67;10.43;;;19.50;99.90;;;;;;4977197;28;20460;-71
2023/06/21 02:52:04;;;;;;;18.73;10.77;;;19.50;99.90;;;;;;4987658;28;20542;-71
2023/06/21 02:54:30;;;;;;;14.70;11.87;;;19.40;99.90;;;;;;4984746;28;20467;-78
2023/06/21 02:56:58;;;;;;;14.77;12.07;;;19.40;99.90;;;;;;4992624;28;20514;-77
2023/06/21 02:59:28;;;;;;;17.90;12.00;;;19.30;99.90;;;;;;4983455;28;20464;-77
2023/06/21 03:01:55;;;;;;;18.80;11.53;;;19.30;99.90;;;;;;4991099;28;20451;-77
2023/06/21 03:04:21;;;;;;;18.20;12.37;;;19.20;99.90;;;;;;4977475;28;20530;-76
2023/06/21 03:06:48;;;;;;;22.93;12.17;;;19.10;99.90;;;;;;4988505;28;20491;-77
2023/06/21 03:09:15;;;;;;;21.60;12.17;;;19.10;99.90;;;;;;4992039;28;20459;-77
2023/06/21 03:11:41;;;;;;;16.80;11.43;;;19.00;99.90;;;;;;4991774;28;20467;-77
2023/06/21 03:14:09;;;;;;;20.97;12.80;;;18.90;99.90;;;;;;4981657;28;20482;-77
2023/06/21 03:16:36;;;;;;;15.10;12.40;;;18.90;99.90;;;;;;4981047;28;20460;-76
2023/06/21 03:19:03;;;;;;;17.00;11.60;;;18.80;99.90;;;;;;4992212;28;20877;-77
2023/06/21 03:21:29;;;;;;;16.13;12.03;;;18.80;99.90;;;;;;4991774;28;20509;-76
2023/06/21 03:23:56;;;;;;;17.03;12.20;;;18.80;99.90;;;;;;4987409;28;20516;-76
2023/06/21 03:26:23;;;;;;;15.50;10.93;;;18.70;99.90;;;;;;4979193;28;20903;-77
2023/06/21 03:28:49;;;;;;;20.77;13.33;;;18.80;99.90;;;;;;4990322;28;20463;-77
2023/06/21 03:31:19;;;;;;;19.13;12.60;;;18.80;99.90;;;;;;4991402;28;20521;-77
2023/06/21 03:33:46;;;;;;;16.50;13.03;;;18.70;99.90;;;;;;4982796;28;20542;-76
2023/06/21 03:36:13;;;;;;;18.87;12.20;;;18.80;99.90;;;;;;4989718;28;20451;-77
2023/06/21 03:38:39;;;;;;;17.60;12.50;;;18.80;99.90;;;;;;4976055;28;20964;-76
2023/06/21 03:41:06;;;;;;;15.70;12.13;;;18.80;99.90;;;;;;4986970;28;20456;-76
2023/06/21 03:43:33;;;;;;;14.57;11.60;;;18.80;99.90;;;;;;4989642;28;20742;-76
2023/06/21 03:46:00;;;;;;;15.80;12.67;;;18.80;99.90;;;;;;4983152;28;20482;-76
2023/06/21 03:48:28;;;;;;;17.63;12.57;;;18.80;99.90;;;;;;4991030;28;20998;-77
2023/06/21 03:50:54;;;;;;;14.53;11.90;;;18.90;99.90;;;;;;4990845;28;20521;-76
2023/06/21 03:53:21;;;;;;;17.37;11.80;;;18.90;99.90;;;;;;4983375;28;20707;-76
2023/06/21 03:55:48;;;;;;;15.97;11.17;;;18.90;99.90;;;;;;4982101;28;20509;-76
2023/06/21 03:58:14;;;;;;;16.53;10.90;;;19.00;99.90;;;;;;4985835;28;20863;-76
2023/06/21 04:00:41;;;;;;;15.43;11.03;;;19.10;99.90;;;;;;4981100;28;20474;-76
2023/06/21 04:03:08;;;;;;;14.30;9.60;;;19.10;99.90;;;;;;4990084;28;20540;-76
2023/06/21 04:05:36;;;;;;;11.33;10.13;;;19.20;99.90;;;;;;4982168;28;20456;-76
2023/06/21 04:08:03;;;;;;;13.70;10.77;;;19.10;99.90;;;;;;4984774;28;21022;-76
2023/06/21 04:10:29;;;;;;;20.23;12.03;;;19.20;99.90;;;;;;4981448;28;20463;-76
2023/06/21 04:12:56;;;;;;;13.60;11.23;;;19.10;99.90;;;;;;4990685;28;20498;-77
2023/06/21 04:15:24;;;;;;;18.83;12.90;;;19.30;99.90;;;;;;4990900;28;20458;-76
2023/06/21 04:17:50;;;;;;;18.00;13.07;;;19.30;99.90;;;;;;4989076;28;20450;-76
2023/06/21 04:20:17;;;;;;;16.63;11.50;;;19.30;99.90;;;;;;4984841;28;20869;-77
2023/06/21 04:22:45;;;;;;;21.37;12.93;;;19.40;99.90;;;;;;4979039;28;21075;-77
2023/06/21 04:25:12;;;;;;;15.73;11.80;;;19.40;99.90;;;;;;4982991;28;20487;-77
2023/06/21 04:27:40;;;;;;;18.60;12.27;;;19.40;99.90;;;;;;4990798;28;20494;-77
2023/06/21 04:30:09;;;;;;;21.43;11.97;;;19.40;99.90;;;;;;4990849;28;20459;-78
2023/06/21 04:32:35;;;;;;;19.23;12.20;;;19.40;99.90;;;;;;4987592;28;20482;-77
2023/06/21 04:35:02;;;;;;;15.70;12.17;;;19.40;99.90;;;;;;4982826;28;20443;-78
2023/06/21 04:37:30;;;;;;;17.13;11.97;;;19.50;99.90;;;;;;4985466;28;20821;-77
2023/06/21 04:39:58;;;;;;;15.60;12.30;;;19.50;99.90;;;;;;4985369;28;20447;-77
2023/06/21 04:42:25;;;;;;;18.70;13.40;;;19.50;99.90;;;;;;4976105;28;20522;-77
2023/06/21 04:44:51;;;;;;;17.27;12.47;;;19.50;99.90;;;;;;4981472;28;20482;-77
2023/06/21 04:47:18;;;;;;;20.87;12.53;;;19.40;99.90;;;;;;4993950;28;20488;-77
2023/06/21 04:49:45;;;;;;;22.97;12.87;;;19.40;99.90;;;;;;4990356;28;20451;-77
2023/06/21 04:52:12;;;;;;;22.80;13.13;;;19.40;99.90;;;;;;4985031;28;20467;-78
2023/06/21 04:54:39;;;;;;;17.10;11.43;;;19.50;99.90;;;;;;4974348;28;20460;-77
2023/06/21 04:57:12;;;;;;;23.23;12.50;;;19.50;99.90;;;;;;4990771;28;20447;-77
2023/06/21 04:59:38;;;;;;;23.87;12.47;;;19.60;99.90;;;;;;4981249;28;20468;-76
2023/06/21 05:02:05;;;;;;;22.23;12.07;;;19.70;99.90;;;;;;4978071;28;20452;-75
2023/06/21 05:04:32;;;;;;;24.67;13.77;;;19.80;99.90;;;;;;4986492;28;20820;-75
2023/06/21 05:06:59;;;;;;;19.70;12.67;;;19.80;99.90;;;;;;4991176;28;21340;-77
2023/06/21 05:09:25;;;;;;;17.03;11.60;;;19.90;99.90;;;;;;4979777;28;20463;-76
2023/06/21 05:11:52;;;;;;;23.97;13.17;;;20.00;99.90;;;;;;4987504;28;21686;-75
2023/06/21 05:14:20;;;;;;;15.50;9.70;;;20.20;99.90;;;;;;4999596;28;20467;-75
2023/06/21 05:16:46;;;;;;;18.77;11.33;;;20.30;99.90;;;;;;4999319;28;20443;-75
2023/06/21 05:19:14;;;;;;;17.83;10.17;;;20.30;99.90;;;;;;5000229;28;20465;-76
2023/06/21 05:21:41;;;;;;;20.33;12.37;;;20.40;99.90;;;;;;4997884;28;20496;-75
2023/06/21 05:24:07;;;;;;;23.77;12.17;;;20.50;99.90;;;;;;4998808;28;20522;-75
2023/06/21 05:26:34;;;;;;;17.77;11.80;;;20.60;99.90;;;;;;5000289;28;21009;-75
2023/06/21 05:29:01;;;;;;;22.00;10.90;;;20.70;99.90;;;;;;4998175;28;20505;-75
2023/06/21 05:31:28;;;;;;;22.27;11.87;;;20.60;99.90;;;;;;4986338;28;20534;-75
2023/06/21 05:33:55;;;;;;;13.77;11.70;;;20.60;99.90;;;;;;4977842;28;21004;-75
2023/06/21 05:36:22;;;;;;;18.23;10.27;;;20.70;99.90;;;;;;4982158;28;20940;-71
2023/06/21 05:38:49;;;;;;;17.50;11.40;;;20.80;99.90;;;;;;4981554;28;20452;-71
2023/06/21 05:41:15;;;;;;;17.20;10.60;;;20.90;99.90;;;;;;4980390;28;20506;-71
2023/06/21 05:43:42;;;;;;;18.50;10.00;;;21.00;99.90;;;;;;4980579;28;21043;-71
2023/06/21 05:46:08;;;;;;;13.40;10.20;;;21.20;99.90;;;;;;4992456;28;20463;-71
2023/06/21 05:48:36;;;;;;;15.40;9.40;;;21.30;99.90;;;;;;4986031;28;20452;-71
2023/06/21 05:51:03;;;;;;;13.07;9.47;;;21.30;99.90;;;;;;4993478;28;20514;-71
2023/06/21 05:53:30;;;;;;;15.77;9.33;;;21.30;99.90;;;;;;4978482;28;20476;-71
2023/06/21 05:55:56;;;;;;;11.30;8.60;;;21.40;99.90;;;;;;4987220;28;20515;-71
2023/06/21 05:58:23;;;;;;;13.57;9.20;;;21.30;99.90;;;;;;4987729;28;20451;-71
2023/06/21 06:00:50;;;;;;;18.03;9.30;;;21.40;99.90;;;;;;4991927;28;20510;-71
2023/06/21 06:03:16;;;;;;;14.10;9.43;;;21.50;99.90;;;;;;4948275;28;20480;-71
2023/06/21 06:05:45;;;;;;;14.43;8.60;;;21.50;99.90;;;;;;5008844;28;20481;-71
2023/06/21 06:08:11;;;;;;;18.50;9.03;;;21.40;99.90;;;;;;5004764;28;20494;-71
2023/06/21 06:10:38;;;;;;;18.57;9.00;;;21.40;99.90;;;;;;5012762;28;20496;-71
2023/06/21 06:13:05;;;;;;;15.80;8.70;;;21.50;99.90;;;;;;5012378;28;20528;-71
2023/06/21 06:15:31;;;;;;;11.60;9.00;;;21.50;99.90;;;;;;5010955;28;20458;-71
2023/06/21 06:17:58;;;;;;;15.50;9.73;;;21.60;99.90;;;;;;5011896;28;20868;-71
2023/06/21 06:20:26;;;;;;;13.53;9.20;;;21.60;99.90;;;;;;4998761;28;20514;-72
2023/06/21 06:22:54;;;;;;;13.23;10.40;;;21.70;99.90;;;;;;5010238;28;20482;-72
2023/06/21 06:25:20;;;;;;;12.77;8.80;;;21.70;99.90;;;;;;5012628;28;20451;-72
2023/06/21 06:27:47;;;;;;;15.03;8.17;;;21.80;99.90;;;;;;5012456;28;20512;-72
2023/06/21 06:30:14;;;;;;;12.90;8.83;;;22.00;99.90;;;;;;5005958;28;20510;-72
2023/06/21 06:32:40;;;;;;;11.50;8.03;;;22.20;99.90;;;;;;5000402;28;20474;-72
2023/06/21 06:35:08;;;;;;;13.07;8.80;;;22.40;99.90;;;;;;5012478;28;20869;-72
2023/06/21 06:37:34;;;;;;;17.87;9.10;;;22.60;99.90;;;;;;4998060;28;20516;-72
2023/06/21 06:40:05;;;;;;;14.70;8.53;;;22.70;99.90;;;;;;5003920;28;20521;-72
2023/06/21 06:42:31;;;;;;;15.97;8.30;;;22.80;99.90;;;;;;5004188;28;20470;-73
2023/06/21 06:44:58;;;;;;;19.87;7.83;;;22.80;99.90;;;;;;5004177;28;20513;-71
2023/06/21 06:47:28;;;;;;;8.90;7.80;;;22.70;99.90;;;;;;5012243;28;20846;-72
2023/06/21 06:49:55;;;;;;;11.00;8.17;;;22.60;99.90;;;;;;5004194;28;20454;-72
2023/06/21 06:52:22;;;;;;;12.33;8.40;;;22.60;99.90;;;;;;5011862;28;20548;-71
2023/06/21 06:54:48;;;;;;;11.60;7.93;;;22.70;99.90;;;;;;5003457;28;20450;-71
2023/06/21 06:57:16;;;;;;;12.60;9.20;;;22.70;99.90;;;;;;5012148;28;20470;-71
2023/06/21 06:59:43;;;;;;;21.37;9.50;;;22.70;99.90;;;;;;5011945;28;20454;-70
2023/06/21 07:02:10;;;;;;;11.83;9.00;;;22.80;99.90;;;;;;5008251;28;20451;-71
2023/06/21 07:04:36;;;;;;;16.10;8.40;;;22.80;99.90;;;;;;5007465;28;20447;-71
2023/06/21 07:07:03;;;;;;;15.83;7.93;;;22.70;99.90;;;;;;5008865;28;20482;-71
2023/06/21 07:09:30;;;;;;;14.67;9.47;;;22.70;99.90;;;;;;5000092;28;20522;-71
2023/06/21 07:11:59;;;;;;;13.30;8.33;;;22.80;99.90;;;;;;5009915;28;20461;-71
2023/06/21 07:14:27;;;;;;;14.40;9.00;;;22.80;99.90;;;;;;4997703;28;21038;-72
2023/06/21 07:16:53;;;;;;;13.20;8.10;;;22.90;99.90;;;;;;5009335;28;20946;-72
2023/06/21 07:19:20;;;;;;;17.17;8.70;;;22.90;99.90;;;;;;5011531;28;20453;-72
2023/06/21 07:21:47;;;;;;;15.50;8.60;;;23.00;99.90;;;;;;5003091;28;20465;-72
2023/06/21 07:24:14;;;;;;;15.23;9.60;;;23.20;99.90;;;;;;5011471;28;21265;-72
2023/06/21 07:26:41;;;;;;;10.93;8.27;;;23.30;99.90;;;;;;5003826;28;20454;-72
2023/06/21 07:29:07;;;;;;;11.63;8.53;;;23.40;99.90;;;;;;5010188;28;20524;-72
2023/06/21 07:31:35;;;;;;;12.83;8.70;;;23.30;99.90;;;;;;5008792;28;20458;-72
2023/06/21 07:34:02;;;;;;;15.17;8.20;;;23.40;99.90;;;;;;5010445;28;20478;-72
2023/06/21 07:36:29;;;;;;;13.63;9.80;;;23.40;99.90;;;;;;4997307;28;20447;-72
2023/06/21 07:38:56;;;;;;;13.20;8.73;;;23.50;99.90;;;;;;5007390;28;20880;-72
2023/06/21 07:41:22;;;;;;;13.93;8.20;;;23.70;99.90;;;;;;4991470;28;20455;-72
2023/06/21 07:43:49;;;;;;;14.60;8.80;;;23.80;99.90;;;;;;4999861;28;20478;-72
2023/06/21 07:46:15;;;;;;;10.63;9.00;;;23.80;99.90;;;;;;5011492;28;20508;-72
2023/06/21 07:48:43;;;;;;;16.93;8.97;;;23.80;99.90;;;;;;5010758;28;20497;-72
2023/06/21 07:51:10;;;;;;;14.80;8.53;;;23.70;99.90;;;;;;5010947;28;20501;-72
2023/06/21 07:53:37;;;;;;;14.33;8.60;;;23.60;99.90;;;;;;5002609;28;20466;-72
2023/06/21 07:56:04;;;;;;;12.37;9.23;;;23.50;99.90;;;;;;5010979;28;20508;-72
2023/06/21 07:58:30;;;;;;;16.50;9.17;;;23.60;99.90;;;;;;4996651;28;20447;-72
2023/06/21 08:00:57;;;;;;;14.63;8.47;;;23.70;99.90;;;;;;4992417;28;20609;-72
2023/06/21 08:03:24;;;;;;;16.03;9.00;;;23.80;99.90;;;;;;5002261;28;20994;-71
2023/06/21 08:05:52;;;;;;;18.43;9.43;;;23.90;99.90;;;;;;5002075;28;20459;-72
2023/06/21 08:08:20;;;;;;;14.30;9.20;;;23.90;99.90;;;;;;4995397;28;21002;-72
2023/06/21 08:10:46;;;;;;;15.17;8.80;;;24.00;99.90;;;;;;5010472;28;20486;-72
2023/06/21 08:13:17;;;;;;;12.83;8.90;;;24.00;99.90;;;;;;5002459;28;20990;-72
2023/06/21 08:15:43;;;;;;;13.60;8.23;;;24.10;99.90;;;;;;5010404;28;20458;-72
2023/06/21 08:18:10;;;;;;;11.43;8.53;;;24.20;99.90;;;;;;5010741;28;20447;-72
2023/06/21 08:20:39;;;;;;;10.00;8.17;;;24.50;99.90;;;;;;5010445;28;20872;-72
2023/06/21 08:23:07;;;;;;;9.87;8.20;;;24.70;99.90;;;;;;5010323;28;20561;-72
2023/06/21 08:25:34;;;;;;;9.57;7.83;;;24.90;99.90;;;;;;5010444;28;20446;-72
2023/06/21 08:28:00;;;;;;;10.20;8.27;;;25.10;99.90;;;;;;5008418;28;20486;-72
2023/06/21 08:30:27;;;;;;;11.37;7.83;;;25.20;99.90;;;;;;5001369;28;20532;-72
2023/06/21 08:32:54;;;;;;;9.80;8.23;;;25.10;99.90;;;;;;5009776;28;20553;-72
2023/06/21 08:35:20;;;;;;;12.83;8.23;;;25.10;99.90;;;;;;5010479;28;20485;-72
2023/06/21 08:37:56;;;;;;;10.60;7.87;;;25.20;99.90;;;;;;5010403;28;20780;-72
2023/06/21 08:40:26;;;;;;;11.80;9.03;;;25.50;99.90;;;;;;5004011;28;20456;-72
2023/06/21 08:42:52;;;;;;;11.77;8.40;;;25.80;99.90;;;;;;5006082;28;20843;-72
2023/06/21 08:45:19;;;;;;;10.00;7.80;;;25.80;99.90;;;;;;5014173;28;20966;-72
2023/06/21 08:47:46;;;;;;;13.30;9.33;;;25.70;99.90;;;;;;5006634;28;20844;-72
2023/06/21 08:50:16;;;;;;;9.63;8.17;;;25.80;99.90;;;;;;5006193;28;20485;-72
2023/06/21 08:52:45;;;;;;;11.00;8.33;;;25.90;99.90;;;;;;5005765;28;20470;-72
2023/06/21 08:55:14;;;;;;;10.80;8.00;;;26.20;99.90;;;;;;5006054;28;20442;-72
2023/06/21 08:57:49;;;;;;;12.60;8.00;;;26.10;99.90;;;;;;5014084;28;20967;-72
2023/06/21 09:00:20;;;;;;;10.00;8.07;;;26.10;99.90;;;;;;5002512;28;20509;-72
2023/06/21 09:02:53;;;;;;;11.63;8.20;;;26.20;99.90;;;;;;5002235;28;20474;-72
2023/06/21 09:05:27;;;;;;;13.47;8.73;;;26.30;99.90;;;;;;5009542;28;20502;-72
2023/06/21 09:07:56;;;;;;;9.50;6.90;;;26.50;99.90;;;;;;5011290;28;20485;-72
2023/06/21 09:10:23;;;;;;;10.73;7.30;;;27.10;99.90;;;;;;5013936;28;20450;-72
2023/06/21 09:12:52;;;;;;;7.47;6.77;;;27.60;99.90;;;;;;5013647;28;20540;-72
2023/06/21 09:15:19;;;;;;;9.47;7.53;;;27.90;99.90;;;;;;5013796;28;20504;-72
2023/06/21 09:17:47;;;;;;;10.60;7.50;;;28.00;99.90;;;;;;5013724;28;20453;-72
2023/06/21 09:20:15;;;;;;;11.03;6.43;;;27.80;99.90;;;;;;4997485;28;20507;-72
2023/06/21 09:22:43;;;;;;;7.93;6.90;;;27.60;99.90;;;;;;5013711;28;20485;-73
2023/06/21 09:25:10;;;;;;;8.00;6.40;;;27.50;99.90;;;;;;5005452;28;20460;-72
2023/06/21 09:27:36;;;;;;;8.70;6.17;;;27.40;99.90;;;;;;5014084;28;20609;-72
2023/06/21 09:30:06;;;;;;;7.33;6.00;;;27.10;99.90;;;;;;5010071;28;20447;-72
2023/06/21 09:32:32;;;;;;;11.40;6.90;;;27.10;99.90;;;;;;4998987;28;20467;-72
2023/06/21 09:35:00;;;;;;;8.97;7.00;;;26.90;99.90;;;;;;5010924;28;20454;-72
2023/06/21 09:37:34;;;;;;;9.67;7.50;;;26.80;99.90;;;;;;5013518;28;20454;-72
2023/06/21 09:40:01;;;;;;;9.30;6.90;;;26.80;99.90;;;;;;5003026;28;20458;-72
2023/06/21 09:42:28;;;;;;;7.90;6.80;;;26.80;99.90;;;;;;5013093;28;20990;-72
2023/06/21 09:44:55;;;;;;;10.60;6.87;;;26.70;99.90;;;;;;5013221;28;20532;-72
2023/06/21 09:47:29;;;;;;;6.90;6.20;;;26.70;99.90;;;;;;5005244;28;20473;-72
2023/06/21 09:49:56;;;;;;;7.43;5.97;;;26.80;99.90;;;;;;5012358;28;20856;-72
2023/06/21 09:52:23;;;;;;;7.80;6.17;;;26.80;99.90;;;;;;4996743;28;20465;-73
2023/06/21 09:54:51;;;;;;;9.27;6.37;;;26.80;99.90;;;;;;5004906;28;20835;-72
2023/06/21 09:57:17;;;;;;;7.53;5.97;;;26.60;99.90;;;;;;5005174;28;20943;-70
2023/06/21 09:59:49;;;;;;;8.80;5.63;;;26.50;99.90;;;;;;5006230;28;20451;-70
2023/06/21 10:02:16;;;;;;;6.80;5.80;;;26.70;99.90;;;;;;5009284;28;20450;-70
2023/06/21 10:04:45;;;;;;;6.10;5.50;;;26.70;99.90;;;;;;5008210;28;20507;-70
2023/06/21 10:07:14;;;;;;;6.63;5.67;;;26.80;99.90;;;;;;5012623;28;20454;-70
2023/06/21 10:09:42;;;;;;;6.53;5.93;;;26.80;99.90;;;;;;5006351;28;20498;-71
2023/06/21 10:12:11;;;;;;;6.50;5.80;;;26.90;99.90;;;;;;5009049;28;20466;-71
2023/06/21 10:14:39;;;;;;;7.60;5.47;;;27.00;99.90;;;;;;5001247;28;20546;-71
2023/06/21 10:17:06;;;;;;;5.83;5.23;;;27.30;99.90;;;;;;5009070;28;20513;-71
2023/06/21 10:19:34;;;;;;;5.63;5.13;;;27.60;99.90;;;;;;5006463;28;20458;-71
2023/06/21 10:22:08;;;;;;;9.13;5.87;;;27.90;99.90;;;;;;5011031;28;20478;-72
2023/06/21 10:24:40;;;;;;;11.37;5.07;;;28.20;99.90;;;;;;5006966;28;20474;-73
2023/06/21 10:27:07;;;;;;;5.43;4.93;;;28.60;99.90;;;;;;5012821;28;20520;-73
2023/06/21 10:29:35;;;;;;;6.30;4.70;;;29.20;99.90;;;;;;5011455;28;20486;-72
2023/06/21 10:32:04;;;;;;;6.67;5.30;;;29.40;99.90;;;;;;5009862;28;20516;-70
2023/06/21 10:34:41;;;;;;;8.20;6.10;;;29.10;99.90;;;;;;5012527;28;20842;-74
2023/06/21 10:37:16;;;;;;;6.07;5.47;;;29.10;99.90;;;;;;5012309;28;20499;-70
2023/06/21 10:39:42;;;;;;;6.20;5.60;;;29.10;99.90;;;;;;5012296;28;20449;-70
2023/06/21 10:42:10;;;;;;;8.07;6.07;;;29.20;99.90;;;;;;5009793;28;20516;-73
2023/06/21 10:44:38;;;;;;;5.30;4.80;;;29.10;99.90;;;;;;5006301;28;20844;-73
2023/06/21 10:47:05;;;;;;;6.20;5.60;;;28.90;99.90;;;;;;5002486;28;20458;-73
2023/06/21 10:49:32;;;;;;;6.40;5.13;;;29.20;99.90;;;;;;5005663;28;20544;-72
2023/06/21 10:51:59;;;;;;;7.23;5.70;;;29.20;99.90;;;;;;5003390;28;20514;-73
2023/06/21 10:54:28;;;;;;;6.33;5.73;;;29.30;99.90;;;;;;5000429;28;20467;-71
2023/06/21 10:56:55;;;;;;;6.60;5.90;;;29.50;99.90;;;;;;5000441;28;20455;-70
2023/06/21 10:59:24;;;;;;;6.40;5.33;;;29.50;99.90;;;;;;5012121;28;20450;-71
2023/06/21 11:01:51;;;;;;;6.67;5.63;;;29.40;99.90;;;;;;5003684;28;20585;-72
2023/06/21 11:04:17;;;;;;;7.07;5.70;;;29.50;99.90;;;;;;5003300;28;20493;-71
2023/06/21 11:06:44;;;;;;;7.50;5.77;;;29.60;99.90;;;;;;4997280;28;20851;-71
2023/06/21 11:09:14;;;;;;;6.60;5.50;;;29.80;99.90;;;;;;5008204;28;20486;-71
2023/06/21 11:11:51;;;;;;;9.73;5.87;;;30.10;99.90;;;;;;4999599;28;20848;-71
2023/06/21 11:14:21;;;;;;;7.20;5.67;;;29.90;99.90;;;;;;4995014;28;20469;-71
2023/06/21 11:16:48;;;;;;;6.10;5.33;;;30.10;99.90;;;;;;5011481;28;21036;-71
2023/06/21 11:19:15;;;;;;;7.50;4.93;;;30.30;99.90;;;;;;4995322;28;20451;-71
2023/06/21 11:21:47;;;;;;;7.93;5.60;;;30.70;99.90;;;;;;5011247;28;20904;-71
2023/06/21 11:24:16;;;;;;;7.60;5.43;;;30.70;99.90;;;;;;5003497;28;20481;-71
2023/06/21 11:26:56;;;;;;;6.60;5.53;;;30.40;99.90;;;;;;5011238;28;20468;-71
2023/06/21 11:29:22;;;;;;;7.40;5.10;;;30.00;99.90;;;;;;5003753;28;20490;-72
2023/06/21 11:31:49;;;;;;;5.40;4.90;;;29.70;99.90;;;;;;5006646;28;20454;-71
2023/06/21 11:34:29;;;;;;;7.20;5.17;;;29.70;99.90;;;;;;5008581;28;21876;-71
2023/06/21 11:36:55;;;;;;;6.50;5.27;;;29.90;99.90;;;;;;5008345;28;20454;-71
2023/06/21 11:39:28;;;;;;;7.00;5.30;;;30.10;99.90;;;;;;5011573;28;20442;-71
2023/06/21 11:42:00;;;;;;;5.17;4.63;;;30.20;99.90;;;;;;5003383;28;21003;-71
2023/06/21 11:44:29;;;;;;;9.43;5.20;;;30.10;99.90;;;;;;4991654;28;20825;-70
2023/06/21 11:47:18;;;;;;;5.60;5.10;;;29.70;99.90;;;;;;4991775;28;20451;-71
2023/06/21 11:49:50;;;;;;;5.87;5.27;;;29.40;99.90;;;;;;5006713;28;20865;-71
2023/06/21 11:52:31;;;;;;;6.70;5.80;;;29.30;99.90;;;;;;4994809;28;20462;-71
2023/06/21 11:54:59;;;;;;;6.33;4.87;;;29.30;99.90;;;;;;5010999;28;20528;-71
2023/06/21 11:57:27;;;;;;;5.23;4.80;;;29.90;99.90;;;;;;5003200;28;20533;-71
2023/06/21 11:59:56;;;;;;;7.70;4.87;;;30.40;99.90;;;;;;5011591;28;20457;-71
2023/06/21 12:02:23;;;;;;;5.63;5.00;;;30.30;99.90;;;;;;5003287;28;20450;-71
2023/06/21 12:04:50;;;;;;;5.97;4.93;;;30.30;99.90;;;;;;5003144;28;20450;-71
2023/06/21 12:07:17;;;;;;;7.67;5.77;;;30.30;99.90;;;;;;5002863;28;20466;-71
2023/06/21 12:09:49;;;;;;;5.93;4.80;;;30.30;99.90;;;;;;5003042;28;20486;-71
2023/06/21 12:12:16;;;;;;;6.83;4.90;;;30.30;99.90;;;;;;5010807;28;20461;-71
2023/06/21 12:14:44;;;;;;;8.20;5.33;;;30.40;99.90;;;;;;5004969;28;20796;-71
2023/06/21 12:17:17;;;;;;;8.03;5.10;;;30.70;99.90;;;;;;5001492;28;20458;-71
2023/06/21 12:19:44;;;;;;;6.00;4.70;;;30.20;99.90;;;;;;5010779;28;20460;-71
2023/06/21 12:22:14;;;;;;;9.67;5.27;;;30.40;99.90;;;;;;5002384;28;20460;-71
2023/06/21 12:24:40;;;;;;;8.53;4.90;;;30.30;99.90;;;;;;5002839;28;20549;-71
2023/06/21 12:27:07;;;;;;;5.03;4.53;;;30.00;99.90;;;;;;5011012;28;20454;-71
2023/06/21 12:29:34;;;;;;;7.10;5.37;;;29.90;99.90;;;;;;5006935;28;20549;-71
2023/06/21 12:32:04;;;;;;;5.23;4.70;;;30.30;99.90;;;;;;5009904;28;20459;-71
2023/06/21 12:34:33;;;;;;;6.83;5.17;;;30.90;99.90;;;;;;5003585;28;21031;-71
2023/06/21 12:36:59;;;;;;;6.60;5.07;;;31.60;99.90;;;;;;5002571;28;20494;-71
2023/06/21 12:39:26;;;;;;;5.30;4.80;;;32.30;99.90;;;;;;5007390;28;20450;-72